Time;durP1;ratioP1;P1;durP2;ratioP2;P2;SDS_P1;SDS_P2;PMS_P1;PMS_P2;Temp;Humidity;BMP_temperature;BMP_pressure;BME280_temperature;BME280_humidity;BME280_pressure;Samples;Min_cycle;Max_cycle;Signal;HPM_P1;HPM_P2
2024/04/11 10:04:04;;;;;;;10.60;6.00;;;;;;;14.74;65.11;100636.58;102874;1289;636245;-77
2024/04/11 10:07:07;;;;;;;8.80;5.40;;;;;;;14.77;65.04;100640.10;104717;1270;95308;-81
2024/04/11 10:10:42;;;;;;;;;;;;;;;;;;;;;
2024/04/11 10:14:33;;;;;;;8.70;5.90;;;;;;;14.80;64.89;100635.98;104459;1271;109215;-79
2024/04/11 10:18:16;;;;;;;9.70;6.30;;;;;;;14.83;64.88;100640.09;104032;1273;300524;-76
2024/04/11 10:22:23;;;;;;;9.10;5.60;;;;;;;14.90;64.91;100633.02;105515;1268;107669;-77
2024/04/11 10:26:07;;;;;;;9.90;5.60;;;;;;;15.01;64.83;100629.80;105789;1253;95269;-78
2024/04/11 10:29:18;;;;;;;8.50;5.80;;;;;;;15.03;64.51;100629.52;105206;1256;95280;-77
2024/04/11 10:36:08;;;;;;;;;;;;;;;15.11;64.50;100631.30;105710;1265;95316;-76
2024/04/11 10:39:24;;;;;;;13.70;5.70;;;;;;;15.07;64.18;100625.34;104827;1263;108401;-76
2024/04/11 10:46:12;;;;;;;8.50;5.70;;;;;;;15.14;64.15;100622.53;104833;1265;96842;-77
2024/04/11 10:49:55;;;;;;;12.00;6.50;;;;;;;15.26;64.23;100623.84;106769;1267;109334;-76
2024/04/11 10:53:02;;;;;;;10.40;6.00;;;;;;;15.34;63.97;100623.14;105393;1268;96913;-78
2024/04/11 10:56:31;;;;;;;8.80;5.60;;;;;;;15.40;63.95;100623.98;106636;1265;108213;-76
2024/04/11 11:00:38;;;;;;;9.70;5.50;;;;;;;15.42;63.76;100621.56;106953;1259;96613;-76
2024/04/11 11:07:04;;;;;;;12.60;5.70;;;;;;;15.58;63.80;100624.02;105576;1257;108957;-76
2024/04/11 11:11:21;;;;;;;7.30;5.20;;;;;;;15.67;63.36;100623.05;102540;1294;648926;-78
2024/04/11 11:18:31;;;;;;;7.30;4.90;;;;;;;15.66;63.31;100617.05;104753;1267;95465;-80
2024/04/11 11:21:59;;;;;;;8.60;5.60;;;;;;;15.64;63.03;100615.20;104981;1266;108413;-78
2024/04/11 11:25:19;;;;;;;7.30;5.30;;;;;;;15.57;63.06;100614.96;101098;1263;5297670;-77
2024/04/11 11:28:25;;;;;;;9.00;5.50;;;;;;;15.63;63.14;100614.37;105106;1262;107734;-78
2024/04/11 11:31:52;;;;;;;9.00;5.40;;;;;;;15.71;63.00;100609.19;104876;1266;95401;-76
2024/04/11 11:35:09;;;;;;;8.30;5.70;;;;;;;15.73;62.76;100614.23;107149;1256;95249;-77
2024/04/11 11:38:46;;;;;;;10.00;5.90;;;;;;;15.72;62.87;100614.14;107165;1260;108740;-77
2024/04/11 11:49:24;;;;;;;;;;;;;;;;;;;;;
2024/04/11 11:52:31;;;;;;;;;;;;;;;;;;;;;
2024/04/11 11:55:58;;;;;;;8.50;5.40;;;;;;;15.98;62.50;100597.48;105328;1261;111505;-78
2024/04/11 11:59:11;;;;;;;10.20;5.50;;;;;;;15.99;62.64;100589.18;105341;1263;96601;-77
2024/04/11 12:02:28;;;;;;;7.90;4.90;;;;;;;16.02;62.44;100585.55;105076;1269;107960;-76
2024/04/11 12:05:40;;;;;;;8.90;5.20;;;;;;;16.08;62.59;100584.11;105087;1257;96597;-76
2024/04/11 12:16:16;;;;;;;8.90;5.90;;;;;;;16.17;62.44;100565.72;105200;1257;97441;-78
2024/04/11 12:19:09;;;;;;;7.80;5.50;;;;;;;16.15;62.14;100566.42;104861;1255;107453;-77
2024/04/11 12:22:34;;;;;;;8.70;5.20;;;;;;;16.13;62.30;100564.23;105355;1260;96613;-78
2024/04/11 12:25:31;;;;;;;7.40;5.00;;;;;;;16.14;62.15;100559.70;105696;1257;96631;-78
2024/04/11 12:28:21;;;;;;;13.20;5.00;;;;;;;16.16;62.12;100557.23;104830;1273;110902;-77
2024/04/11 12:31:21;;;;;;;9.30;5.10;;;;;;;16.11;62.03;100551.48;105528;1269;96580;-77
2024/04/11 12:35:01;;;;;;;11.00;5.90;;;;;;;16.05;61.84;100550.66;105414;1258;109012;-77
2024/04/11 12:38:12;;;;;;;;;;;;;;;;;;;;;
2024/04/11 12:42:07;;;;;;;;;;;;;;;;;;;;;
2024/04/11 12:45:00;;;;;;;7.10;5.10;;;;;;;15.98;61.72;100542.80;105156;1257;110429;-77
2024/04/11 12:51:30;;;;;;;14.80;8.50;;;;;;;16.06;61.89;100532.55;105342;1264;106975;-77
2024/04/11 12:54:46;;;;;;;;;;;;;;;;;;;;;
2024/04/11 13:09:27;;;;;;;;;;;;;;;;;;;;;
2024/04/11 13:12:44;;;;;;;6.70;4.70;;;;;;;16.49;61.14;100518.65;97214;1275;10707538;-80
2024/04/11 13:20:48;;;;;;;;;;;;;;;;;;;;;
2024/04/11 13:24:11;;;;;;;;;;;;;;;;;;;;;
2024/04/11 13:27:28;;;;;;;6.70;4.70;;;;;;;16.49;60.86;100512.23;103791;1280;95239;-76
2024/04/11 13:30:26;;;;;;;;;;;;;;;;;;;;;
2024/04/11 13:33:58;;;;;;;;;;;;;;;;;;;;;
2024/04/11 13:37:37;;;;;;;6.40;4.30;;;;;;;16.39;60.64;100508.48;105098;1261;95405;-78
2024/04/11 13:43:48;;;;;;;7.20;5.20;;;;;;;16.41;60.41;100502.24;105408;1276;96744;-75
2024/04/11 13:47:12;;;;;;;11.00;5.10;;;;;;;16.43;60.36;100501.35;104620;1265;97794;-77
2024/04/11 13:54:19;;;;;;;7.90;5.00;;;;;;;16.48;60.30;100490.80;105411;1260;96788;-77
2024/04/11 13:56:57;;;;;;;;;;;;;;;;;;;;;
2024/04/11 14:00:13;;;;;;;6.30;4.00;;;;;;;16.46;60.20;100485.71;107577;1266;94867;-77
